Hovedside
METAR-TAF:

METAR-TAF

Lufthavner :

Damaskus, Syria

breddegrad: 33-25N, lengdegrad: 036-31E, høyde over havet: 608 m

Gjeldene værobservasjon

Denne rapporten ble laget for 28 minutter siden, klokken 08:00 UTC
Vind 8 kt fra Øst
Temperatur 19°C
Luftfuktighet 56%
Trykk 1019 hPa
Sikt 10 km eller mer
ingen skyer under 1500 m og ingen bygeskyer

METAR: OSDI 130800Z 09008KT CAVOK 19/10 Q1019

Tid: 10:28 (08:28 UTC)

Varsel

Denne rapporten ble laget for 3 timer og 13 minutter siden, klokken 05:15 UTC
Varsel gyldig fra 13. klokken 06 UTC til 14. klokken 12 UTC
Vind 10 kt fra Nordøst
Sikt 10 km eller mer
ingen skyer under 1500 m og ingen bygeskyer
Midlertidig
fra 13. klokken 12 UTC til 13. klokken 18 UTC
Vind 10 kt fra Sørvest
Sikt 10 km eller mer
Få skyer i en høyde av 3000 ft

TAF: OSDI 130515Z 1306/1412 04010KT CAVOK TEMPO 1312/1318 22010KT 9999 FEW030

Værobservasjoner og værvarsel for over 4000 flyplasser (METAR- og TAF-rapporter).

Tilgjengelige stasjoner er representert av de røde og gule prikkene på kartet.

Hold musepekeren over prikken for å se navnet på stasjonen.

Klikk så for å se værobservasjoner og -varsler.

For å forandre kartet kan du klikke på den grønne knappen med svart kryss for å zoome inn, på den grønne knappen med strek for å zoome ut, eller på de grønne pilene for å se tilstøtende kart.


METAR-TAF: